KLMT/LMT METAR and TAF weather

Enter ICAO airport designator
Station Type Date Time Source
KLMT METAR 2021/10/24 21:53 UTC NOAA

KLMT 242153Z 20012KT 7SM -RA BKN035 OVC045 09/06 A2936 RMK AO2 PK WND 20032/2054 SLP926 P0003 T00890061


Station Type Date Time Source
KLMT Decoded METAR 2021/10/24 21:53 UTC NOAA

KLAMATH FALLS INTERNATIONAL AIRPORT, OR, United States (KLMT) 42-09N 121-43W 1246M
Oct 24, 2021 - 05:53 PM EDT / 2021.10.24 2153 UTC
Wind: from the SSW (200 degrees) at 14 MPH (12 KT):0
Visibility: 7 mile(s):0
Sky conditions: overcast
Weather: light rain
Precipitation last hour: 0.03 inches
Temperature: 48.0 F (8.9 C)
Dew Point: 43.0 F (6.1 C)
Relative Humidity: 82%
Pressure (altimeter): 29.36 in. Hg (994 hPa)
ob: KLMT 242153Z 20012KT 7SM -RA BKN035 OVC045 09/06 A2936 RMK AO2 PK WND 20032/2054 SLP926 P0003 T00890061
cycle: 22

Station Type Date Time Source
KLMT TAF 2021/10/24 18:45 UTC NOAA

TAF KLMT 241742Z 2418/2518 16030G40KT P6SM -RA OVC040
FM250000 19022G35KT P6SM -SHRA OVC040
FM250400 20010KT P6SM VCSH OVC040

Example: see airport list